Airfield :
LOGIN :

Register | Disclaimer

   EN    FR    IT 

 










Legend :    VFR   Marginal VFR   IFR   Intensive IFR   Very Intensive IFR
Visi :
Ceiling :
>= 8 km
>= 3000ft
5 to 8 km
1000 to 3000 ft
1500m to 5 km
500 to 1000 ft
800 to 1500m
200 to 500 ft
< 800m
< 200 ft
Symbols :   Thunderstorms  Fog  Heavy snow  Heavy precipitations  Wind > 20 kt
SIGMETs :     Misc.  Thunderstorms  Icing  Turbulence  Mountain Waves  Volcanic Ashes






- Airport Elevation : 312 ft
- IATA code : SAW


LTFJ - Sabiha Gokcen

CURRENT METAR :
  • 281050Z 22010KT 180V240 9999 FEW020TCU SCT030 BKN090 16/10 Q1016 TEMPO -TSRA

EXPIRED METARs :
  • 281020Z 23010KT 180V280 9999 FEW020TCU SCT030 BKN090 17/09 Q1016 TEMPO -TSRA
  • 280950Z 23009KT 200V260 9999 FEW020TCU SCT030 BKN090 17/09 Q1016 TEMPO -TSRA
  • 280920Z 25009KT 210V270 9999 FEW020TCU SCT030 BKN090 17/10 Q1016 TEMPO -TSRA
  • 280850Z 24009KT 200V260 9999 SCT035 BKN100 16/10 Q1016 NOSIG RMK RWY24 23007KT
  • 280820Z 23007KT 200V260 9999 SCT035 BKN100 15/10 Q1016 NOSIG RMK RWY24 23007KT

TAF TAF LTFJ
Valid from the 28 at 06:00 until the 29 at 06:00 UTC


280440Z 2806/2906 VRB02KT 9999 SCT035 BKN100
PROB40
TEMPO 2809/2813 23012KT -TSRA FEW020CB BKN030



MET'MAP, your aeronautical weather chart ! - Copyright ORBIFLY December 2007 - Disclaimer

ORBIFLY MET'MAP TEAM :

Programming & Development : Alexandra Zaïnal
Concept & original design : Baudouin d'Aumeries
Assistance for programming : Marc-Olivier Méhu
Technical & hardware support : Manuel Goepfert

Contact : metmap@orbifly.com




SOURCES & CREDITS :

   NOAA